EFMA

Mariehamn Airport

Finland
METAR EFMA 222120Z AUTO 09001KT CAVOK 01/M00 Q1016
Observed Flight Rules
Apr-22 @ 21:20 UTC (29 minutes ago) Visual Flight Rules
Wind Visibility Clouds
90° at 1 knots 10,000+ meters
  • Clear skies
Temperatures Readings
Current 1°C / 34°F
Dewpoint 0°C / 32°F
Humidity 93%
Altimeter 30" Hg
Pressure 1016 hPa
Elevation 6
METAR EFMA 222120Z AUTO 09001KT CAVOK 01/M00 Q1016
Observed Flight Rules
Apr-22 @ 21:20 UTC
(29 minutes ago)
VFR
Wind Visibility
90° at 1 knots 10,000+ meters
Clouds
  • Clear skies
Temperature Dewpoint
1°C / 34°F 0°C / 32°F
Humidity Altimeter Pressure
93% 30" Hg 1016 hPa